默认 日期 大小 文件数 浏览量 最新下载 xml
the guns磁力链接相关资源由用户搜索指令自动获取,结果来源于网络,本站不存储任何资料,亦不承担任何责任,请于24小时内删除,搜索到1575个磁力,用时44ms。
    {"BLES00246.7z.001": 209715200, "BLES00246.7z.002": 209715200, "BLES00246.7z.003": 209715200, "BLES00246.7z.004": 209715200, "BLES00246.7z.005": 209715200, "BLES00246.7z.006": 209715200, "BLES00246.7z.007": 209715200, "BLES00246.7z.008": 209715200, " ...
创建时间: 2020-03-07 02:55:50 大小:23.24 GB 文件数量:119 热度:7 最近下载:2025-02-26 20:42:03
    ... .jpg": 16111, "08. Hair of the Dog.mp3": 9416416, "03. Down ... on the Farm.mp3": 8360026, "01. Since ...
创建时间: 2020-03-08 16:25:19 大小:105.88 MB 文件数量:13 热度:3 最近下载:2023-12-28 02:56:03
    ... ": {"Folder.jpg": 121682, "Sympathy For The Devil (Single) - Label Side 1 ... .jpg": 166531, "Sympathy For The Devil (Single) - Label Side 2 ... .flac": 70363952, "01 - Sympathy For The Devil.flac": 192371301}
创建时间: 2020-03-22 11:05:50 大小:251.12 MB 文件数量:9 热度:5 最近下载:2024-12-14 06:15:02
    ... - Estranged.mkv": 200463015, "Guns N Roses - Welcome To The Videos - 08 - Yesterdays ... , "Guns N Roses - Welcome To The Videos - 09 - The Garden.mkv": 109935052, "Guns N ... Roses - Welcome To The ...
创建时间: 2020-03-24 04:20:43 大小:1.34 GB 文件数量:13 热度:2 最近下载:2023-12-28 23:15:02
    {"Guns N' Roses - November Rain ( 1080 X 1080 ).mp4": 150234626, "Guns N' Roses - Welcome To The Jungle ( 1080 X 1080 ).mp4": 88558218}
创建时间: 2020-04-10 19:26:08 大小:227.73 MB 文件数量:2 热度:3 最近下载:2025-09-28 16:09:02
    {"cover.jpg": 7010, "vinyl.jpg": 17760, "2. toast of the town.mp3": 8470529, "1. stick to your guns.mp3": 12111873}
创建时间: 2020-04-11 18:02:48 大小:19.65 MB 文件数量:4 热度:3 最近下载:2023-12-30 16:07:03
    ... .mp3": 12132404, "05 - Get In The Ring.mp3": 13647508, "16 - Think ... .mp3": 8135619, "04 - Welcome to the Jungle.mp3": 10825350, "13 - Right ...
创建时间: 2020-04-15 18:38:36 大小:269.87 MB 文件数量:24 热度:2 最近下载:2023-12-31 01:54:03
    ... .flac": 27463403, "07 - Move To The City.flac": 24614132, "18 - Heartbreak ... Tonight.flac": 34397464, "Welcome To The Sessions.m3u": 1395, "20 - Jumping ... .flac": 20641068, "12 - Welcome To The Jungle.flac": 34798069}
创建时间: 2020-04-20 02:54:00 大小:724.42 MB 文件数量:48 热度:5 最近下载:2025-03-03 10:01:52
    {"Cover.jpg": 291777, "snap1.jpg": 303673, "snap2.jpg": 210459, "snap3.jpg": 102433, "snap4.jpg": 241679, "Guns N' Roses - Appetite for Democracy Live at the Hard Rock 2014 1080p.mkv": 8296078526}
创建时间: 2020-04-23 09:36:44 大小:7.73 GB 文件数量:6 热度:6 最近下载:2025-02-06 02:34:04
    {"Cover.jpg": 56636, "01 - Disc 1 of 10.mp3": 139740816, "02 - Disc 2 of 10.mp3": 130126919, "03 - Disc 3 of 10.mp3": 149668182, "04 - Disc 4 of 10.mp3": 137359284, "05 - Disc 5 of 10.mp3": 144023226, "06 - Disc 6 of 10.mp3": 143616969, "07 - Disc 7 of 10. ...
创建时间: 2020-04-24 01:03:58 大小:1.21 GB 文件数量:11 热度:10 最近下载:2025-04-26 04:23:01
    {"04 Rocker.mp3": 6867906, "02 Killing Time.mp3": 6617130, "01 Reckless Life.mp3": 9002005, "03 Anything Goes.mp3": 8692716, "05 Shadow of Your Love.mp3": 5763658, "14 Rocker (Fred Coury Remix).mp3": 6894655, "09 Rocker (Gilby Clarke Remix).mp3": 7373636, ...
创建时间: 2020-05-03 07:11:23 大小:108.18 MB 文件数量:15 热度:6 最近下载:2025-08-23 12:27:01
    ... 8097049, "08 - L.A. Guns - Over The Edge.mp3": 15409245, "07 - L ... .A. Guns - Long Time Dead. ... .mp3": 12293371, "13 - L.A. Guns - The Ballad of Jayne.mp3": 15149078 ... 6454484, "L.A. Guns - Live! A Night On The Strip.txt": 14258}
创建时间: 2020-05-03 21:09:27 大小:136.45 MB 文件数量:18 热度:5 最近下载:2025-04-12 20:14:01
    ... .flac": 35699978, "A1 - Kanji Kinetic - The Buffalo.flac": 39013979, "A2 - Kanji ... , "(COINOP06) Various - Bring Out The Big Guns EP.m3u": 343, "B1 - Michael ...
创建时间: 2020-05-04 12:35:32 大小:164.24 MB 文件数量:7 热度:5 最近下载:2025-08-06 07:37:04
    ... .mp3": 16488031, "10. Guns N Roses-The Garden.mp3": 12779689, "25 ... ": 11353460, "01. Guns N Roses-Welcome To The Jungle.mp3": 10927107 ... , "28. Guns N Roses- ... Sympathy For The Devil.mp3": 18226805 ...
创建时间: 2020-05-06 16:40:04 大小:442 MB 文件数量:41 热度:5 最近下载:2023-04-23 01:20:17
    {"Subs": {"5_English.srt": 56371}, "RARBG.txt": 30, "RARBG_DO_NOT_MIRROR.exe": 99, "Guns.Of.The.Magnificent.Seven.1969.1080p.BluRay.x265-RARBG.mp4": 1774206573}
创建时间: 2020-05-08 22:57:25 大小:1.65 GB 文件数量:4 热度:11 最近下载:2024-09-22 21:06:02
    ... "04. Yesterdays.mp3": 8760410, "31. The Garden.mp3": 13875138, "38. Dead ... ": 14637920, "36. Catcher In The Rye.mp3": 15036028, "09. ... mp3": 9061351, "06. Welcome To The Jungle.mp3": 11784357, "07. ... Sympathy For The Devil.mp3": 19124766, "37. ...
创建时间: 2020-05-18 14:08:44 大小:489.51 MB 文件数量:41 热度:3 最近下载:2023-04-24 20:40:09
    ... .mp3": 13032086, "02 Welcome To The Jungle.mp3": 10378610, "11 Knockin ... .mp3": 10931410, "03 Riad N' The Bedouins.mp3": 11885903, "05 Buckethead ...
创建时间: 2020-05-18 19:53:50 大小:388.05 MB 文件数量:34 热度:5 最近下载:2024-06-30 16:28:02
    {"Guns N' Roses - Welcome to the Jungle.mp4": 277434154}
创建时间: 2020-05-19 13:26:56 大小:264.58 MB 文件数量:1 热度:4 最近下载:2022-04-08 06:21:15
    ... 4879192, "00 - hollywood rose-the roots of guns n roses-back inside ... , "00 - hollywood rose-the roots of guns n roses-sleeve back ... , "00 - hollywood rose-the roots of guns n roses-back outside ... 1428527, "00 - hollywood rose-the roots of guns n roses-sleeve front ...
创建时间: 2020-05-19 20:38:53 大小:93.39 MB 文件数量:24 热度:2 最近下载:2022-04-09 06:24:24
    {"info.txt": 692, "VIDEO_TS.BUP": 8192, "VIDEO_TS.IFO": 8192, "VTS_01_0.BUP": 51200, "VTS_01_0.IFO": 51200, "VTS_01_0.VOB": 55162880, "VTS_01_1.VOB": 1073565696, "VTS_01_2.VOB": 776077312, "1988- philadelphia Spectrum.md5": 480, "1988-08-04 Philadelphia ...
创建时间: 2020-05-24 17:00:33 大小:1.78 GB 文件数量:11 热度:6 最近下载:2024-12-17 04:20:02